Time;durP1;ratioP1;P1;durP2;ratioP2;P2;SDS_P1;SDS_P2;PMS_P1;PMS_P2;Temp;Humidity;BMP_temperature;BMP_pressure;BME280_temperature;BME280_humidity;BME280_pressure;Samples;Min_cycle;Max_cycle;Signal;HPM_P1;HPM_P2
2021/11/02 00:00:15;;;;;;;4.60;1.83;;;9.90;99.90;;;;;;5034421;28;20174;-70
2021/11/02 00:02:44;;;;;;;2.00;1.80;;;9.90;99.90;;;;;;5033413;28;20216;-72
2021/11/02 00:05:09;;;;;;;3.17;2.10;;;9.90;99.90;;;;;;5034314;28;20402;-73
2021/11/02 00:07:35;;;;;;;2.63;2.23;;;9.90;99.90;;;;;;5029314;28;20481;-72
2021/11/02 00:10:06;;;;;;;3.00;1.40;;;9.90;99.90;;;;;;5034055;28;20666;-71
2021/11/02 00:12:33;;;;;;;2.10;1.90;;;9.90;99.90;;;;;;5032733;28;20553;-71
2021/11/02 00:14:58;;;;;;;2.93;2.20;;;9.90;99.90;;;;;;5034188;28;20771;-71
2021/11/02 00:17:27;;;;;;;2.17;1.80;;;9.90;99.90;;;;;;5033797;28;20445;-71
2021/11/02 00:19:57;;;;;;;2.57;2.07;;;9.90;99.90;;;;;;5033838;28;20179;-69
2021/11/02 00:22:25;;;;;;;3.00;2.10;;;9.90;99.90;;;;;;5033749;28;20476;-70
2021/11/02 00:27:21;;;;;;;3.20;1.70;;;9.90;99.90;;;;;;5033862;28;20507;-70
2021/11/02 00:29:47;;;;;;;2.50;2.30;;;9.90;99.90;;;;;;5033516;28;20430;-71
2021/11/02 00:32:12;;;;;;;3.27;2.63;;;9.90;99.90;;;;;;5033520;28;20417;-70
2021/11/02 00:34:38;;;;;;;5.23;1.90;;;9.90;99.90;;;;;;5033424;28;20904;-70
2021/11/02 00:37:04;;;;;;;2.27;2.10;;;9.90;99.90;;;;;;5032001;28;20164;-72
2021/11/02 00:39:29;;;;;;;2.73;2.00;;;9.90;99.90;;;;;;5033172;28;20196;-70
2021/11/02 00:41:55;;;;;;;2.33;1.83;;;9.90;99.90;;;;;;5033283;28;20211;-70
2021/11/02 00:44:22;;;;;;;3.07;2.20;;;9.90;99.90;;;;;;5033301;28;20175;-70
2021/11/02 00:46:50;;;;;;;3.47;2.83;;;9.90;99.90;;;;;;5032172;28;20259;-70
2021/11/02 00:49:20;;;;;;;5.57;2.43;;;9.90;99.90;;;;;;5033026;28;20921;-70
2021/11/02 00:51:46;;;;;;;3.07;2.50;;;9.90;99.90;;;;;;5033292;28;20411;-70
2021/11/02 00:54:12;;;;;;;3.40;2.43;;;9.90;99.90;;;;;;5033100;28;20468;-70
2021/11/02 00:56:38;;;;;;;4.20;2.40;;;9.90;99.90;;;;;;5033194;28;20164;-70
2021/11/02 00:59:04;;;;;;;2.23;1.80;;;9.90;99.90;;;;;;5033056;28;20461;-70
2021/11/02 01:01:29;;;;;;;3.07;1.97;;;9.90;99.90;;;;;;5033320;28;20434;-71
2021/11/02 01:03:55;;;;;;;2.50;2.30;;;9.90;99.90;;;;;;5032901;28;20349;-72
2021/11/02 01:06:21;;;;;;;2.93;2.63;;;9.90;99.90;;;;;;5030991;28;20222;-71
2021/11/02 01:08:46;;;;;;;5.20;3.27;;;9.90;99.90;;;;;;5029999;28;20297;-71
2021/11/02 01:11:12;;;;;;;2.90;2.67;;;9.90;99.90;;;;;;5032988;28;20246;-71
2021/11/02 01:13:37;;;;;;;2.57;2.37;;;9.90;99.90;;;;;;5033106;28;20710;-72
2021/11/02 01:16:03;;;;;;;2.97;2.60;;;9.80;99.90;;;;;;5033208;28;20176;-72
2021/11/02 01:18:28;;;;;;;2.43;2.23;;;9.90;99.90;;;;;;5032990;28;20207;-72
2021/11/02 01:20:54;;;;;;;4.03;3.10;;;9.90;99.90;;;;;;5033060;28;20175;-71
2021/11/02 01:23:19;;;;;;;3.40;2.93;;;9.80;99.90;;;;;;5033245;28;20240;-71
2021/11/02 01:25:45;;;;;;;3.23;2.97;;;9.80;99.90;;;;;;5033098;28;20583;-71
2021/11/02 01:28:11;;;;;;;2.50;2.00;;;9.80;99.90;;;;;;5031305;28;20563;-70
2021/11/02 01:30:37;;;;;;;5.87;2.77;;;9.80;99.90;;;;;;5032634;28;20398;-71
2021/11/02 01:33:02;;;;;;;2.33;2.13;;;9.90;99.90;;;;;;5032714;28;20628;-71
2021/11/02 01:36:02;;;;;;;3.70;2.67;;;9.80;99.90;;;;;;5032453;28;20537;-71
2021/11/02 01:38:28;;;;;;;6.53;2.57;;;9.80;99.90;;;;;;5029638;28;20200;-71
2021/11/02 01:41:02;;;;;;;5.40;2.93;;;9.80;99.90;;;;;;5032505;28;20410;-71
2021/11/02 01:43:28;;;;;;;2.67;2.20;;;9.80;99.90;;;;;;5032503;28;20213;-71
2021/11/02 01:45:54;;;;;;;2.93;2.63;;;9.80;99.90;;;;;;5032536;28;20944;-70
2021/11/02 01:48:28;;;;;;;2.87;2.33;;;9.80;99.90;;;;;;5031123;28;20265;-70
2021/11/02 01:50:54;;;;;;;3.00;2.40;;;9.80;99.90;;;;;;5032192;28;20170;-70
2021/11/02 01:53:20;;;;;;;3.00;2.70;;;9.80;99.90;;;;;;5032090;28;20490;-70
2021/11/02 01:55:46;;;;;;;3.00;2.43;;;9.70;99.90;;;;;;5032514;28;20460;-70
2021/11/02 01:58:15;;;;;;;3.97;2.87;;;9.80;99.90;;;;;;5032783;28;20440;-71
2021/11/02 02:00:47;;;;;;;3.27;2.80;;;9.80;99.90;;;;;;5030949;28;20360;-71
2021/11/02 02:03:50;;;;;;;9.53;2.80;;;9.80;99.90;;;;;;5032409;28;20555;-70
2021/11/02 02:06:27;;;;;;;2.73;2.47;;;9.80;99.90;;;;;;5032663;28;20406;-70
2021/11/02 02:09:03;;;;;;;4.07;2.70;;;9.80;99.90;;;;;;5027219;28;20457;-71
2021/11/02 02:12:00;;;;;;;5.03;2.77;;;9.90;99.90;;;;;;5032097;28;20414;-70
2021/11/02 02:14:42;;;;;;;4.63;3.43;;;9.90;99.90;;;;;;5030919;28;20406;-71
2021/11/02 02:17:18;;;;;;;3.90;3.57;;;9.90;99.90;;;;;;5031901;28;20430;-70
2021/11/02 02:19:52;;;;;;;3.83;2.50;;;9.90;99.90;;;;;;5031623;28;20414;-69
2021/11/02 02:22:56;;;;;;;2.57;2.37;;;9.90;99.90;;;;;;5031801;28;20986;-70
2021/11/02 02:25:51;;;;;;;3.50;2.53;;;9.90;99.90;;;;;;5031676;28;20428;-69
2021/11/02 02:28:24;;;;;;;3.17;2.87;;;9.80;99.90;;;;;;5032082;28;20464;-71
2021/11/02 02:30:59;;;;;;;4.93;3.00;;;9.80;99.90;;;;;;5030769;28;20969;-70
2021/11/02 02:33:30;;;;;;;3.60;2.90;;;9.80;99.90;;;;;;5031807;28;20411;-71
2021/11/02 02:35:56;;;;;;;5.00;3.43;;;9.80;99.90;;;;;;5032083;28;20915;-71
2021/11/02 02:38:24;;;;;;;3.83;3.30;;;9.80;99.90;;;;;;5031667;28;20425;-70
2021/11/02 02:40:54;;;;;;;3.83;3.47;;;9.70;99.90;;;;;;5030803;28;20406;-71
2021/11/02 02:43:24;;;;;;;5.70;2.77;;;9.70;99.90;;;;;;5031572;28;20979;-70
2021/11/02 02:45:52;;;;;;;4.40;3.43;;;9.70;99.90;;;;;;5029399;28;20464;-71
2021/11/02 02:48:20;;;;;;;3.70;3.33;;;9.70;99.90;;;;;;5031577;28;20797;-70
2021/11/02 02:50:47;;;;;;;5.37;3.13;;;9.70;99.90;;;;;;5031589;28;20394;-71
2021/11/02 02:53:14;;;;;;;6.07;3.50;;;9.70;99.90;;;;;;5027763;28;20418;-72
2021/11/02 02:55:42;;;;;;;3.20;2.90;;;9.70;99.90;;;;;;5030160;28;20476;-71
2021/11/02 02:58:10;;;;;;;6.13;3.53;;;9.70;99.90;;;;;;5030960;28;20426;-71
2021/11/02 03:00:37;;;;;;;3.63;2.80;;;9.70;99.90;;;;;;5031042;28;20944;-70
2021/11/02 03:03:04;;;;;;;5.17;4.13;;;9.70;99.90;;;;;;5029374;28;20450;-71
2021/11/02 03:05:32;;;;;;;3.80;3.23;;;9.70;99.90;;;;;;5031159;28;20411;-69
2021/11/02 03:07:58;;;;;;;5.03;4.53;;;9.80;99.90;;;;;;5031149;28;20506;-70
2021/11/02 03:10:24;;;;;;;3.80;3.00;;;9.80;99.90;;;;;;5031041;28;20485;-69
2021/11/02 03:12:55;;;;;;;4.17;3.17;;;9.70;99.90;;;;;;5031506;28;20176;-70
2021/11/02 03:52:12;;;;;;;4.53;3.80;;;9.80;99.90;;;;;;5034417;28;20421;-70
2021/11/02 03:57:10;;;;;;;4.93;3.40;;;9.70;99.90;;;;;;5034668;28;20419;-70
2021/11/02 04:00:09;;;;;;;3.87;3.37;;;9.70;99.90;;;;;;5034269;28;20473;-70
2021/11/02 04:24:57;;;;;;;6.23;4.00;;;9.70;99.90;;;;;;5033912;28;20408;-70
2021/11/02 04:27:52;;;;;;;8.47;4.63;;;9.70;99.90;;;;;;5037961;28;20410;-70
2021/11/02 04:33:29;;;;;;;6.00;4.17;;;9.70;99.90;;;;;;5042269;28;20415;-70
2021/11/02 04:37:01;;;;;;;6.03;4.27;;;9.70;99.90;;;;;;5047688;28;20426;-71
2021/11/02 04:58:01;;;;;;;5.23;3.93;;;9.60;99.90;;;;;;5051496;28;20445;-71
2021/11/02 05:48:47;;;;;;;5.13;3.80;;;9.80;99.90;;;;;;5019453;28;20533;-70
2021/11/02 05:56:53;;;;;;;5.13;4.63;;;9.80;99.90;;;;;;5019275;28;20842;-69
2021/11/02 06:02:14;;;;;;;6.10;4.27;;;9.80;99.90;;;;;;5012832;28;20406;-70
2021/11/02 06:04:58;;;;;;;4.47;3.83;;;9.90;99.90;;;;;;5012309;28;20770;-70
2021/11/02 06:29:35;;;;;;;5.43;4.00;;;9.80;99.90;;;;;;5012681;28;20845;-71
2021/11/02 06:32:08;;;;;;;7.60;4.20;;;9.80;99.90;;;;;;5012207;28;20417;-70
2021/11/02 06:45:40;;;;;;;6.10;4.40;;;9.90;99.90;;;;;;5011874;28;20472;-71
2021/11/02 06:51:24;;;;;;;8.00;5.33;;;9.90;99.90;;;;;;5011909;28;20553;-70
2021/11/02 07:19:29;;;;;;;6.07;4.33;;;9.90;99.90;;;;;;5016047;28;20445;-71
2021/11/02 07:22:13;;;;;;;6.00;4.40;;;9.90;99.90;;;;;;5030898;28;20425;-71
2021/11/02 08:45:38;;;;;;;10.70;4.50;;;10.20;99.90;;;;;;5025483;28;20978;-70
2021/11/02 08:48:04;;;;;;;5.83;4.00;;;10.10;99.90;;;;;;5033478;28;20426;-70
2021/11/02 08:50:43;;;;;;;6.47;4.80;;;10.20;99.90;;;;;;5033841;28;20401;-70
2021/11/02 08:53:11;;;;;;;7.30;4.93;;;10.20;99.90;;;;;;5033764;28;20421;-71
2021/11/02 08:55:40;;;;;;;6.10;4.17;;;10.20;99.90;;;;;;5033154;28;20489;-69
2021/11/02 08:58:05;;;;;;;7.27;4.87;;;10.20;99.90;;;;;;5029299;28;20434;-70
2021/11/02 09:00:32;;;;;;;7.20;4.60;;;10.20;99.90;;;;;;5016200;28;20899;-70
2021/11/02 09:03:18;;;;;;;8.87;5.03;;;10.30;99.90;;;;;;5045990;28;20215;-70
2021/11/02 09:05:48;;;;;;;8.10;4.33;;;10.20;99.90;;;;;;5053007;28;20410;-71
2021/11/02 09:08:13;;;;;;;7.57;4.87;;;10.20;99.90;;;;;;5048059;28;20442;-71
2021/11/02 09:10:41;;;;;;;6.83;4.57;;;10.30;99.90;;;;;;5033274;28;20406;-71
2021/11/02 09:13:09;;;;;;;6.87;4.30;;;10.30;99.90;;;;;;5032934;28;20248;-70
2021/11/02 09:15:36;;;;;;;8.50;4.23;;;10.20;99.90;;;;;;5031322;28;20428;-71
2021/11/02 09:18:07;;;;;;;11.77;6.00;;;10.20;99.90;;;;;;5013209;28;20453;-71
2021/11/02 09:20:34;;;;;;;10.63;5.40;;;10.40;99.90;;;;;;5013390;28;20415;-71
2021/11/02 09:23:01;;;;;;;7.33;5.17;;;10.40;99.90;;;;;;5013971;28;20471;-69
2021/11/02 09:25:27;;;;;;;9.30;5.70;;;10.50;99.90;;;;;;5032700;28;20481;-70
2021/11/02 09:27:52;;;;;;;8.67;5.83;;;10.40;99.90;;;;;;5032416;28;20287;-70
2021/11/02 09:30:20;;;;;;;10.50;6.40;;;10.50;99.90;;;;;;5032618;28;20229;-70
2021/11/02 09:32:48;;;;;;;7.97;6.00;;;10.50;99.90;;;;;;5030006;28;20176;-70
2021/11/02 09:35:15;;;;;;;12.20;6.30;;;10.50;99.90;;;;;;5031600;28;20786;-70
2021/11/02 09:37:43;;;;;;;10.67;6.03;;;10.50;99.90;;;;;;5018401;28;20427;-70
2021/11/02 09:40:38;;;;;;;15.77;6.30;;;10.50;99.90;;;;;;5012713;28;20411;-69
2021/11/02 09:43:15;;;;;;;6.00;5.40;;;10.60;99.90;;;;;;5012655;28;20466;-70
2021/11/02 09:46:14;;;;;;;9.87;6.80;;;10.90;99.90;;;;;;5011333;28;20419;-70
2021/11/02 09:49:00;;;;;;;8.63;5.63;;;10.90;99.90;;;;;;5012490;28;20470;-70
2021/11/02 09:51:59;;;;;;;9.70;6.10;;;11.00;99.90;;;;;;5015632;28;20509;-70
2021/11/02 09:54:50;;;;;;;8.97;5.57;;;11.20;99.90;;;;;;5032127;28;20882;-69
2021/11/02 09:57:20;;;;;;;10.03;6.07;;;10.90;99.90;;;;;;5021464;28;20417;-70
2021/11/02 09:59:58;;;;;;;9.70;6.50;;;10.90;99.90;;;;;;5027022;28;20439;-71
2021/11/02 10:02:31;;;;;;;12.40;6.90;;;11.00;99.90;;;;;;5038384;28;20986;-70
2021/11/02 10:05:25;;;;;;;11.97;6.80;;;10.90;99.90;;;;;;5027431;28;20458;-70
2021/11/02 10:08:30;;;;;;;9.57;6.33;;;11.00;99.90;;;;;;5010379;28;20446;-70
2021/11/02 10:11:33;;;;;;;12.30;7.73;;;11.00;99.90;;;;;;5012291;28;20794;-70
2021/11/02 10:14:25;;;;;;;10.80;7.40;;;11.00;99.90;;;;;;5012257;28;20482;-70
2021/11/02 10:16:59;;;;;;;12.17;6.13;;;11.00;99.90;;;;;;5028349;28;20767;-70
2021/11/02 10:20:03;;;;;;;12.03;6.87;;;11.00;99.90;;;;;;5029892;28;20501;-70
2021/11/02 10:22:47;;;;;;;10.20;6.87;;;11.00;99.90;;;;;;5012274;28;20584;-70
2021/11/02 10:25:23;;;;;;;13.33;6.57;;;11.00;99.90;;;;;;5012040;28;20423;-69
2021/11/02 10:28:10;;;;;;;18.50;7.53;;;11.20;99.90;;;;;;5012076;28;20476;-69
2021/11/02 10:30:39;;;;;;;8.20;6.93;;;11.40;99.90;;;;;;5012060;28;20395;-69
2021/11/02 10:33:18;;;;;;;9.43;7.43;;;11.40;99.90;;;;;;5011683;28;20415;-69
2021/11/02 10:35:59;;;;;;;9.47;6.03;;;11.40;99.90;;;;;;5015709;28;20438;-72
2021/11/02 10:38:31;;;;;;;11.50;5.93;;;11.30;99.90;;;;;;5026893;28;20434;-74
2021/11/02 10:41:00;;;;;;;9.17;5.97;;;11.20;99.90;;;;;;5029531;28;20418;-71
2021/11/02 10:43:44;;;;;;;7.87;5.17;;;11.00;99.90;;;;;;5015466;28;20840;-71
2021/11/02 10:46:13;;;;;;;8.70;5.70;;;11.10;99.90;;;;;;5017295;28;20433;-72
2021/11/02 10:48:49;;;;;;;8.17;6.00;;;11.20;99.90;;;;;;5014225;28;20454;-70
2021/11/02 10:52:03;;;;;;;9.17;5.50;;;11.40;99.90;;;;;;5032115;28;20438;-71
2021/11/02 10:54:58;;;;;;;7.63;5.67;;;11.60;99.90;;;;;;5024136;28;20440;-71
2021/11/02 10:57:38;;;;;;;5.20;4.60;;;11.60;99.90;;;;;;5031256;28;20429;-71
2021/11/02 11:00:09;;;;;;;6.23;4.47;;;11.40;99.90;;;;;;5012298;28;20418;-71
2021/11/02 11:02:37;;;;;;;5.17;3.90;;;11.50;99.90;;;;;;5028990;28;20472;-71
2021/11/02 11:05:05;;;;;;;6.70;4.57;;;11.70;99.90;;;;;;5031192;28;20407;-71
2021/11/02 11:07:39;;;;;;;7.23;4.70;;;11.80;99.90;;;;;;5031430;28;20448;-70
2021/11/02 11:10:11;;;;;;;7.53;4.97;;;11.80;99.90;;;;;;5029973;28;20489;-71
2021/11/02 11:12:43;;;;;;;7.20;5.30;;;11.70;99.90;;;;;;5014364;28;21124;-70
2021/11/02 11:15:09;;;;;;;7.10;4.67;;;11.70;99.90;;;;;;5027538;28;20493;-72
2021/11/02 11:17:35;;;;;;;6.90;4.67;;;11.60;99.90;;;;;;5031160;28;20438;-70
2021/11/02 11:20:14;;;;;;;4.93;3.63;;;11.60;99.90;;;;;;5031580;28;20552;-70
2021/11/02 11:22:47;;;;;;;5.97;4.03;;;11.40;99.90;;;;;;5011545;28;20458;-70
2021/11/02 11:25:16;;;;;;;5.67;4.50;;;11.80;99.90;;;;;;5011619;28;20508;-70
2021/11/02 11:27:56;;;;;;;6.50;4.87;;;11.90;99.90;;;;;;5011669;28;20456;-70
2021/11/02 11:30:27;;;;;;;4.60;4.20;;;11.90;99.90;;;;;;5015911;28;20415;-70
2021/11/02 11:32:53;;;;;;;9.13;4.53;;;11.90;99.90;;;;;;5030492;28;20827;-70
2021/11/02 11:35:20;;;;;;;5.30;3.57;;;12.00;99.90;;;;;;5031339;28;20406;-70
2021/11/02 11:37:48;;;;;;;4.93;3.73;;;12.00;99.90;;;;;;5031574;28;20430;-71
2021/11/02 11:40:23;;;;;;;4.00;3.60;;;12.10;99.90;;;;;;5032625;28;20457;-71
2021/11/02 11:42:52;;;;;;;5.10;4.17;;;12.40;99.90;;;;;;5032599;28;20453;-71
2021/11/02 11:45:21;;;;;;;4.53;4.13;;;12.60;99.90;;;;;;5034642;28;20460;-71
2021/11/02 11:47:47;;;;;;;4.67;3.70;;;12.40;99.90;;;;;;5034930;28;20932;-70
2021/11/02 11:50:25;;;;;;;5.43;3.83;;;12.50;99.90;;;;;;5029577;28;20419;-71
2021/11/02 11:52:59;;;;;;;4.33;3.33;;;12.60;99.90;;;;;;5015090;28;20407;-71
2021/11/02 11:55:29;;;;;;;7.53;4.13;;;12.60;99.90;;;;;;5014724;28;20472;-71
2021/11/02 11:58:15;;;;;;;4.77;3.90;;;12.40;99.90;;;;;;5020943;28;20434;-70
2021/11/02 12:00:51;;;;;;;4.73;4.20;;;12.30;99.90;;;;;;5027298;28;20449;-71
2021/11/02 12:03:22;;;;;;;5.63;4.13;;;12.50;99.90;;;;;;5042317;28;20461;-70
2021/11/02 12:06:16;;;;;;;5.53;3.83;;;12.50;99.90;;;;;;5031637;28;20447;-71
2021/11/02 12:08:50;;;;;;;4.23;3.90;;;11.90;99.90;;;;;;5023472;28;20431;-71
2021/11/02 12:11:19;;;;;;;9.20;5.17;;;12.00;99.90;;;;;;5034797;28;20419;-71
2021/11/02 12:13:48;;;;;;;5.20;4.73;;;11.80;99.90;;;;;;5035078;28;20442;-72
2021/11/02 12:16:24;;;;;;;10.00;4.57;;;11.80;99.90;;;;;;5045945;28;20491;-71
2021/11/02 12:19:20;;;;;;;5.57;5.03;;;11.80;99.90;;;;;;5054312;28;20594;-70
2021/11/02 12:22:00;;;;;;;5.77;4.40;;;11.80;99.90;;;;;;5038244;28;20421;-71
2021/11/02 12:24:30;;;;;;;4.73;3.90;;;11.90;99.90;;;;;;5020045;28;20422;-70
2021/11/02 12:26:55;;;;;;;7.23;4.67;;;11.90;99.90;;;;;;5014733;28;20899;-70
2021/11/02 12:29:27;;;;;;;5.47;4.00;;;12.20;99.90;;;;;;5014821;28;20442;-70
2021/11/02 12:32:04;;;;;;;5.50;4.93;;;11.90;99.90;;;;;;5028909;28;20566;-70
2021/11/02 12:34:47;;;;;;;6.30;5.07;;;11.80;99.90;;;;;;5033023;28;20809;-71
2021/11/02 12:37:14;;;;;;;5.90;4.13;;;11.90;99.90;;;;;;5029487;28;20770;-69
2021/11/02 12:39:40;;;;;;;6.30;5.00;;;12.10;99.90;;;;;;5016298;28;20446;-70
2021/11/02 12:42:06;;;;;;;7.13;5.50;;;12.00;99.90;;;;;;5014692;28;20414;-70
2021/11/02 12:44:34;;;;;;;5.77;4.47;;;12.40;99.90;;;;;;5013877;28;20747;-69
2021/11/02 12:47:02;;;;;;;5.80;4.33;;;12.40;99.90;;;;;;5014253;28;20169;-69
2021/11/02 12:49:34;;;;;;;12.53;5.73;;;12.70;99.90;;;;;;5021823;28;20431;-69
2021/11/02 12:52:04;;;;;;;7.13;5.20;;;12.60;99.90;;;;;;5033890;28;20468;-70
2021/11/02 12:54:30;;;;;;;5.43;4.80;;;12.20;99.90;;;;;;5032813;28;20776;-69
2021/11/02 12:57:09;;;;;;;7.03;5.23;;;12.10;99.90;;;;;;5033340;28;20457;-68
2021/11/02 12:59:40;;;;;;;7.57;5.77;;;12.40;99.90;;;;;;5033483;28;20774;-68
2021/11/02 13:02:19;;;;;;;7.20;5.30;;;12.50;99.90;;;;;;5040982;28;20912;-70
2021/11/02 13:04:58;;;;;;;5.70;4.50;;;12.50;99.90;;;;;;5040552;28;20513;-70
2021/11/02 13:07:24;;;;;;;5.60;5.00;;;12.70;99.90;;;;;;5035302;28;20414;-69
2021/11/02 13:09:51;;;;;;;6.63;5.10;;;12.50;99.90;;;;;;5033200;28;20449;-68
2021/11/02 13:12:23;;;;;;;5.90;4.90;;;12.40;99.90;;;;;;5033517;28;20402;-70
2021/11/02 13:14:49;;;;;;;4.57;4.03;;;12.60;99.90;;;;;;5027064;28;20417;-70
2021/11/02 13:17:18;;;;;;;7.13;4.60;;;12.90;99.90;;;;;;5033419;28;20434;-69
2021/11/02 13:19:49;;;;;;;4.63;4.23;;;12.80;99.90;;;;;;5033994;28;20431;-72
2021/11/02 13:22:18;;;;;;;6.37;4.40;;;12.70;99.90;;;;;;5036369;28;20476;-71
2021/11/02 13:25:09;;;;;;;4.83;4.33;;;12.80;99.90;;;;;;5038009;28;20497;-72
2021/11/02 13:27:42;;;;;;;4.97;4.57;;;12.80;99.90;;;;;;5036159;28;20484;-72
2021/11/02 13:30:29;;;;;;;5.20;4.70;;;12.60;99.90;;;;;;5041444;28;20407;-73
2021/11/02 13:33:05;;;;;;;5.57;5.07;;;12.50;99.90;;;;;;5035653;28;20758;-73
2021/11/02 13:35:38;;;;;;;5.30;4.80;;;12.40;99.90;;;;;;5039646;28;20414;-72
2021/11/02 13:38:25;;;;;;;4.67;4.20;;;12.40;99.90;;;;;;5035088;28;20443;-71
2021/11/02 13:41:15;;;;;;;5.77;5.17;;;12.60;99.90;;;;;;5021373;28;20406;-73
2021/11/02 13:43:42;;;;;;;8.00;5.00;;;12.80;99.90;;;;;;5018308;28;20465;-75
2021/11/02 13:46:10;;;;;;;4.50;4.17;;;12.70;99.90;;;;;;5022655;28;20412;-71
2021/11/02 13:48:38;;;;;;;10.83;4.97;;;12.60;99.90;;;;;;5023653;28;20461;-72
2021/11/02 13:51:05;;;;;;;6.80;4.90;;;12.50;99.90;;;;;;5042741;28;20433;-71
2021/11/02 13:53:34;;;;;;;4.10;3.70;;;12.50;99.90;;;;;;5043339;28;20410;-72
2021/11/02 13:56:03;;;;;;;5.17;4.67;;;12.60;99.90;;;;;;5040653;28;20857;-71
2021/11/02 13:58:29;;;;;;;4.37;4.00;;;12.40;99.90;;;;;;5027362;28;20450;-71
2021/11/02 14:00:55;;;;;;;4.37;3.97;;;12.20;99.90;;;;;;5036970;28;20541;-72
2021/11/02 14:03:30;;;;;;;4.47;4.07;;;12.20;99.90;;;;;;5045703;28;20462;-73
2021/11/02 14:05:58;;;;;;;6.27;4.00;;;12.20;99.90;;;;;;5025083;28;20409;-70
2021/11/02 14:08:24;;;;;;;4.60;4.20;;;12.40;99.90;;;;;;5024677;28;20457;-73
2021/11/02 14:10:52;;;;;;;5.60;4.63;;;12.40;99.90;;;;;;5041449;28;20422;-71
2021/11/02 14:13:37;;;;;;;4.80;3.73;;;12.20;99.90;;;;;;5041267;28;20402;-73
2021/11/02 14:16:03;;;;;;;5.40;3.73;;;12.20;99.90;;;;;;5039034;28;20437;-73
2021/11/02 14:18:33;;;;;;;4.73;4.33;;;12.30;99.90;;;;;;5038067;28;20465;-71
2021/11/02 14:20:59;;;;;;;6.20;4.23;;;12.30;99.90;;;;;;5032132;28;20416;-73
2021/11/02 14:23:31;;;;;;;4.37;3.97;;;12.20;99.90;;;;;;5036405;28;20481;-72
2021/11/02 14:26:26;;;;;;;4.50;4.10;;;12.20;99.90;;;;;;5034301;28;20254;-73
2021/11/02 14:28:56;;;;;;;5.27;3.73;;;12.10;99.90;;;;;;5034518;28;20422;-75
2021/11/02 14:31:45;;;;;;;4.23;3.50;;;12.30;99.90;;;;;;5033581;28;20452;-75
2021/11/02 14:34:27;;;;;;;3.30;2.67;;;12.50;99.90;;;;;;5035732;28;20398;-73
2021/11/02 14:37:17;;;;;;;4.50;2.33;;;12.60;99.90;;;;;;5037672;28;20405;-72
2021/11/02 14:39:57;;;;;;;2.90;2.30;;;12.70;99.90;;;;;;5028669;28;20498;-73
2021/11/02 14:42:47;;;;;;;6.60;2.90;;;12.60;99.90;;;;;;5019880;28;20450;-72
2021/11/02 14:45:15;;;;;;;3.57;2.90;;;12.60;99.90;;;;;;5020309;28;20408;-74
2021/11/02 14:47:40;;;;;;;3.30;3.00;;;12.60;99.90;;;;;;5016373;28;20426;-74
2021/11/02 14:50:36;;;;;;;2.13;2.00;;;12.60;99.90;;;;;;5027408;28;20410;-74
2021/11/02 14:53:13;;;;;;;5.23;2.70;;;12.70;99.90;;;;;;5035261;28;20211;-73
2021/11/02 14:55:48;;;;;;;3.13;2.83;;;12.60;99.90;;;;;;5030306;28;20418;-74
2021/11/02 14:58:40;;;;;;;3.53;2.50;;;12.50;99.90;;;;;;5030358;28;20872;-71
2021/11/02 15:01:06;;;;;;;3.17;2.53;;;12.30;99.90;;;;;;5033272;28;20813;-73
2021/11/02 15:03:33;;;;;;;2.63;2.43;;;12.30;99.90;;;;;;5043891;28;20975;-74
2021/11/02 15:06:07;;;;;;;2.90;2.70;;;12.30;99.90;;;;;;5028502;28;20464;-72
2021/11/02 15:08:35;;;;;;;6.20;2.80;;;12.40;99.90;;;;;;5031553;28;20422;-71
2021/11/02 15:11:06;;;;;;;3.40;2.40;;;12.30;99.90;;;;;;5031990;28;20414;-72
2021/11/02 15:13:31;;;;;;;2.63;2.43;;;12.20;99.90;;;;;;5027817;28;20433;-72
2021/11/02 15:16:01;;;;;;;3.03;2.83;;;12.10;99.90;;;;;;5031700;28;20414;-71
2021/11/02 15:18:50;;;;;;;2.47;2.27;;;12.10;99.90;;;;;;5032782;28;20211;-71
2021/11/02 15:21:28;;;;;;;2.30;2.10;;;12.00;99.90;;;;;;5035499;28;20406;-71
2021/11/02 15:23:54;;;;;;;2.00;1.80;;;11.90;99.90;;;;;;5035143;28;20449;-71
2021/11/02 15:26:20;;;;;;;5.20;2.30;;;11.90;99.90;;;;;;5034966;28;20418;-71
2021/11/02 15:28:50;;;;;;;2.60;2.40;;;12.00;99.90;;;;;;5034926;28;20686;-73
2021/11/02 15:31:22;;;;;;;2.60;2.40;;;11.90;99.90;;;;;;5019784;28;20233;-71
2021/11/02 15:33:48;;;;;;;2.00;1.90;;;11.90;99.90;;;;;;5020031;28;20941;-72
2021/11/02 15:36:20;;;;;;;4.00;2.00;;;11.80;99.90;;;;;;5034452;28;20422;-71
2021/11/02 15:39:03;;;;;;;2.30;2.10;;;11.80;99.90;;;;;;5033719;28;20268;-71
2021/11/02 15:41:30;;;;;;;2.47;2.23;;;11.70;99.90;;;;;;5035005;28;20468;-69
2021/11/02 15:44:01;;;;;;;2.47;2.27;;;11.70;99.90;;;;;;5034798;28;20453;-70
2021/11/02 15:46:38;;;;;;;2.57;2.37;;;11.60;99.90;;;;;;5034217;28;20406;-72
2021/11/02 15:49:05;;;;;;;2.33;2.00;;;11.60;99.90;;;;;;5019942;28;20417;-70
2021/11/02 15:51:37;;;;;;;2.90;2.00;;;11.60;99.90;;;;;;5031469;28;20413;-71
2021/11/02 15:54:09;;;;;;;2.33;2.13;;;11.50;99.90;;;;;;5018709;28;20410;-71
2021/11/02 15:56:36;;;;;;;4.50;2.40;;;11.40;99.90;;;;;;5032256;28;20775;-71
2021/11/02 15:59:05;;;;;;;4.93;2.90;;;11.40;99.90;;;;;;5034261;28;20434;-71
2021/11/02 16:01:33;;;;;;;2.83;2.53;;;11.30;99.90;;;;;;5036940;28;20808;-71
2021/11/02 16:04:14;;;;;;;5.07;2.10;;;11.30;99.90;;;;;;5044507;28;20463;-70
2021/11/02 16:07:01;;;;;;;3.03;2.83;;;11.20;99.90;;;;;;5014354;28;20796;-70
2021/11/02 16:09:49;;;;;;;2.50;2.40;;;11.20;99.90;;;;;;5029118;28;20445;-70
2021/11/02 16:12:17;;;;;;;3.07;2.47;;;11.20;99.90;;;;;;5034321;28;20907;-70
2021/11/02 16:15:02;;;;;;;2.90;2.40;;;11.10;99.90;;;;;;5034002;28;20509;-70
2021/11/02 16:17:29;;;;;;;3.23;2.50;;;11.00;99.90;;;;;;5032582;28;20505;-70
2021/11/02 16:19:57;;;;;;;3.37;2.50;;;11.00;99.90;;;;;;5034201;28;20421;-71
2021/11/02 16:22:24;;;;;;;3.30;2.50;;;10.90;99.90;;;;;;5034288;28;20957;-70
2021/11/02 16:25:09;;;;;;;4.27;2.57;;;10.90;99.90;;;;;;5033560;28;20418;-70
2021/11/02 16:27:36;;;;;;;3.40;2.20;;;10.80;99.90;;;;;;5022138;28;20419;-70
2021/11/02 16:30:16;;;;;;;2.67;2.47;;;10.80;99.90;;;;;;5013386;28;20436;-70
2021/11/02 16:32:45;;;;;;;2.40;2.20;;;10.70;99.90;;;;;;5014291;28;20453;-70
2021/11/02 16:35:10;;;;;;;2.30;1.83;;;10.70;99.90;;;;;;5014089;28;20513;-72
2021/11/02 16:37:38;;;;;;;2.40;2.20;;;10.60;99.90;;;;;;5014140;28;20562;-71
2021/11/02 16:40:26;;;;;;;4.37;2.47;;;10.60;99.90;;;;;;5013530;28;20644;-70
2021/11/02 16:43:01;;;;;;;2.57;2.30;;;10.60;99.90;;;;;;5015387;28;20455;-70
2021/11/02 16:45:33;;;;;;;7.13;2.37;;;10.60;99.90;;;;;;5029727;28;20436;-71
2021/11/02 16:48:05;;;;;;;4.33;2.33;;;10.50;99.90;;;;;;5033383;28;20512;-71
2021/11/02 16:50:38;;;;;;;3.17;2.67;;;10.50;99.90;;;;;;5031474;28;20430;-71
2021/11/02 16:53:22;;;;;;;2.80;2.60;;;10.40;99.90;;;;;;5036690;28;20414;-72
2021/11/02 16:55:48;;;;;;;2.93;2.63;;;10.40;99.90;;;;;;5031962;28;20428;-71
2021/11/02 16:58:22;;;;;;;3.40;2.90;;;10.40;99.90;;;;;;5044905;28;20436;-71
2021/11/02 17:00:48;;;;;;;4.50;2.80;;;10.40;99.90;;;;;;5037674;28;20179;-72
2021/11/02 17:03:15;;;;;;;3.00;2.80;;;10.40;99.90;;;;;;5043761;28;20986;-71
2021/11/02 17:05:42;;;;;;;7.03;3.20;;;10.40;99.90;;;;;;5050299;28;20490;-71
2021/11/02 17:08:10;;;;;;;2.93;2.47;;;10.40;99.90;;;;;;5037865;28;20442;-71
2021/11/02 17:10:41;;;;;;;5.10;3.27;;;10.40;99.90;;;;;;5029603;28;20428;-71
2021/11/02 17:13:13;;;;;;;3.33;3.03;;;10.40;99.90;;;;;;5037514;28;20513;-71
2021/11/02 17:15:59;;;;;;;3.77;3.47;;;10.30;99.90;;;;;;5032737;28;20532;-71
2021/11/02 17:18:44;;;;;;;4.50;3.50;;;10.30;99.90;;;;;;5036512;28;20842;-71
2021/11/02 17:21:11;;;;;;;6.07;3.17;;;10.30;99.90;;;;;;5040690;28;20413;-71
2021/11/02 17:23:37;;;;;;;5.00;3.10;;;10.30;99.90;;;;;;5031138;28;20956;-71
2021/11/02 17:26:05;;;;;;;3.03;2.63;;;10.30;99.90;;;;;;5038082;28;20447;-71
2021/11/02 17:28:31;;;;;;;4.20;3.50;;;10.30;99.90;;;;;;5041536;28;20462;-71
2021/11/02 17:31:08;;;;;;;4.50;3.47;;;10.30;99.90;;;;;;5037628;28;20813;-71
2021/11/02 17:33:35;;;;;;;6.00;3.47;;;10.30;99.90;;;;;;5022096;28;20440;-71
2021/11/02 17:36:03;;;;;;;3.77;3.30;;;10.30;99.90;;;;;;5035857;28;20433;-72
2021/11/02 17:38:29;;;;;;;5.83;4.10;;;10.30;99.90;;;;;;5032797;28;20445;-71
2021/11/02 17:40:55;;;;;;;5.00;3.57;;;10.30;99.90;;;;;;5032040;28;20844;-71
2021/11/02 17:43:24;;;;;;;4.03;3.60;;;10.30;99.90;;;;;;5034153;28;20458;-73
2021/11/02 17:45:49;;;;;;;5.47;3.67;;;10.30;99.90;;;;;;5038203;28;20429;-71
2021/11/02 17:48:15;;;;;;;4.50;3.50;;;10.30;99.90;;;;;;5042129;28;20814;-71
2021/11/02 17:50:42;;;;;;;5.13;4.10;;;10.30;99.90;;;;;;5038454;28;20186;-71
2021/11/02 17:53:08;;;;;;;6.40;4.37;;;10.20;99.90;;;;;;5036369;28;20422;-72
2021/11/02 17:55:34;;;;;;;8.20;4.20;;;10.20;99.90;;;;;;5042082;28;20431;-72
2021/11/02 17:58:03;;;;;;;4.93;4.43;;;10.10;99.90;;;;;;5040234;28;20465;-72
2021/11/02 18:00:29;;;;;;;4.60;3.80;;;10.10;99.90;;;;;;5034704;28;20737;-69
2021/11/02 18:02:58;;;;;;;7.70;4.60;;;10.00;99.90;;;;;;5032753;28;20552;-70
2021/11/02 18:05:31;;;;;;;8.57;5.07;;;10.10;99.90;;;;;;5041524;28;20467;-69